sensor_id;sensor_type;location;lat;lon;timestamp;pressure;altitude;pressure_sealevel;temperature;humidity
498;BME280;39559;48.630;9.162;2022-08-01T00:01:42;97526.56;;;14.96;100.00
498;BME280;39559;48.630;9.162;2022-08-01T00:04:07;97519.91;;;14.90;100.00
498;BME280;39559;48.630;9.162;2022-08-01T00:06:33;97526.63;;;14.80;100.00
498;BME280;39559;48.630;9.162;2022-08-01T00:08:58;97529.72;;;14.87;100.00
498;BME280;39559;48.630;9.162;2022-08-01T00:11:24;97538.09;;;14.77;100.00
498;BME280;39559;48.630;9.162;2022-08-01T00:15:54;97531.56;;;14.70;100.00
498;BME280;39559;48.630;9.162;2022-08-01T00:18:19;97531.34;;;14.73;100.00
498;BME280;39559;48.630;9.162;2022-08-01T00:20:45;97535.75;;;14.73;100.00
498;BME280;39559;48.630;9.162;2022-08-01T00:23:11;97537.31;;;14.61;100.00
498;BME280;39559;48.630;9.162;2022-08-01T00:25:36;97540.09;;;14.58;100.00
498;BME280;39559;48.630;9.162;2022-08-01T00:28:02;97541.28;;;14.52;100.00
498;BME280;39559;48.630;9.162;2022-08-01T00:30:27;97542.78;;;14.56;100.00
498;BME280;39559;48.630;9.162;2022-08-01T00:32:53;97540.44;;;14.52;100.00
498;BME280;39559;48.630;9.162;2022-08-01T00:35:18;97546.84;;;14.46;100.00
498;BME280;39559;48.630;9.162;2022-08-01T00:39:50;97544.00;;;14.35;100.00
498;BME280;39559;48.630;9.162;2022-08-01T00:42:16;97555.13;;;14.38;100.00
498;BME280;39559;48.630;9.162;2022-08-01T00:44:41;97552.41;;;14.40;100.00
498;BME280;39559;48.630;9.162;2022-08-01T00:47:07;97552.59;;;14.37;100.00
498;BME280;39559;48.630;9.162;2022-08-01T00:49:33;97546.53;;;14.36;100.00
498;BME280;39559;48.630;9.162;2022-08-01T00:51:59;97551.84;;;14.35;100.00
498;BME280;39559;48.630;9.162;2022-08-01T00:54:26;97550.41;;;14.29;100.00
498;BME280;39559;48.630;9.162;2022-08-01T00:56:52;97548.81;;;14.27;100.00
498;BME280;39559;48.630;9.162;2022-08-01T00:59:20;97557.78;;;14.23;100.00
498;BME280;39559;48.630;9.162;2022-08-01T01:03:46;97559.97;;;14.14;100.00
498;BME280;39559;48.630;9.162;2022-08-01T01:12:22;97557.03;;;14.05;100.00
498;BME280;39559;48.630;9.162;2022-08-01T01:14:59;97553.16;;;14.12;100.00
498;BME280;39559;48.630;9.162;2022-08-01T01:17:35;97550.25;;;14.16;100.00
498;BME280;39559;48.630;9.162;2022-08-01T01:20:03;97556.00;;;14.07;100.00
498;BME280;39559;48.630;9.162;2022-08-01T01:22:50;97561.56;;;14.01;100.00
498;BME280;39559;48.630;9.162;2022-08-01T01:30:56;97553.56;;;14.04;100.00
498;BME280;39559;48.630;9.162;2022-08-01T01:33:25;97555.16;;;14.07;100.00
498;BME280;39559;48.630;9.162;2022-08-01T01:35:59;97559.38;;;14.09;100.00
498;BME280;39559;48.630;9.162;2022-08-01T01:38:33;97564.88;;;14.05;100.00
498;BME280;39559;48.630;9.162;2022-08-01T01:40:59;97570.16;;;14.03;100.00
498;BME280;39559;48.630;9.162;2022-08-01T01:43:29;97568.06;;;13.94;100.00
498;BME280;39559;48.630;9.162;2022-08-01T01:45:55;97568.97;;;13.93;100.00
498;BME280;39559;48.630;9.162;2022-08-01T01:48:22;97571.84;;;13.88;100.00
498;BME280;39559;48.630;9.162;2022-08-01T01:51:38;97569.25;;;13.88;100.00
498;BME280;39559;48.630;9.162;2022-08-01T01:54:04;97565.59;;;13.91;100.00
498;BME280;39559;48.630;9.162;2022-08-01T01:56:31;97567.53;;;13.87;100.00
498;BME280;39559;48.630;9.162;2022-08-01T01:59:03;97574.34;;;13.90;100.00
498;BME280;39559;48.630;9.162;2022-08-01T02:01:32;97575.69;;;13.97;100.00
498;BME280;39559;48.630;9.162;2022-08-01T02:03:59;97570.81;;;13.91;100.00
498;BME280;39559;48.630;9.162;2022-08-01T02:06:28;97574.34;;;13.90;100.00
498;BME280;39559;48.630;9.162;2022-08-01T02:08:55;97567.97;;;13.79;100.00
498;BME280;39559;48.630;9.162;2022-08-01T02:11:22;97573.19;;;13.79;100.00
498;BME280;39559;48.630;9.162;2022-08-01T02:15:32;97572.84;;;13.86;100.00
498;BME280;39559;48.630;9.162;2022-08-01T02:17:59;97572.69;;;13.89;100.00
498;BME280;39559;48.630;9.162;2022-08-01T02:20:28;97568.13;;;13.92;100.00
498;BME280;39559;48.630;9.162;2022-08-01T02:23:08;97577.31;;;13.83;100.00
498;BME280;39559;48.630;9.162;2022-08-01T02:25:39;97576.78;;;13.77;100.00
498;BME280;39559;48.630;9.162;2022-08-01T02:28:10;97573.50;;;13.73;100.00
498;BME280;39559;48.630;9.162;2022-08-01T02:30:42;97569.88;;;13.60;100.00
498;BME280;39559;48.630;9.162;2022-08-01T02:33:16;97574.34;;;13.58;100.00
498;BME280;39559;48.630;9.162;2022-08-01T02:35:45;97573.84;;;13.67;100.00
498;BME280;39559;48.630;9.162;2022-08-01T02:39:30;97570.47;;;13.65;100.00
498;BME280;39559;48.630;9.162;2022-08-01T02:41:59;97572.34;;;13.63;100.00
498;BME280;39559;48.630;9.162;2022-08-01T02:44:31;97573.59;;;13.72;100.00
498;BME280;39559;48.630;9.162;2022-08-01T02:47:00;97575.00;;;13.61;100.00
498;BME280;39559;48.630;9.162;2022-08-01T02:49:40;97578.03;;;13.54;100.00
498;BME280;39559;48.630;9.162;2022-08-01T02:52:11;97577.34;;;13.50;100.00
498;BME280;39559;48.630;9.162;2022-08-01T02:54:43;97585.00;;;13.53;100.00
498;BME280;39559;48.630;9.162;2022-08-01T02:57:09;97578.88;;;13.54;100.00
498;BME280;39559;48.630;9.162;2022-08-01T02:59:38;97584.44;;;13.48;100.00
498;BME280;39559;48.630;9.162;2022-08-01T03:03:25;97580.72;;;13.52;100.00
498;BME280;39559;48.630;9.162;2022-08-01T03:05:50;97584.06;;;13.38;100.00
498;BME280;39559;48.630;9.162;2022-08-01T03:08:17;97585.59;;;13.42;100.00
498;BME280;39559;48.630;9.162;2022-08-01T03:10:45;97581.44;;;13.38;100.00
498;BME280;39559;48.630;9.162;2022-08-01T03:13:13;97576.56;;;13.32;100.00
498;BME280;39559;48.630;9.162;2022-08-01T03:15:41;97572.28;;;13.30;100.00
498;BME280;39559;48.630;9.162;2022-08-01T03:18:09;97578.38;;;13.30;100.00
498;BME280;39559;48.630;9.162;2022-08-01T03:20:35;97579.44;;;13.26;100.00
498;BME280;39559;48.630;9.162;2022-08-01T03:23:06;97585.28;;;13.31;100.00
498;BME280;39559;48.630;9.162;2022-08-01T03:27:23;97585.28;;;13.31;100.00
498;BME280;39559;48.630;9.162;2022-08-01T03:29:50;97588.06;;;13.28;100.00
498;BME280;39559;48.630;9.162;2022-08-01T03:32:18;97580.38;;;13.25;100.00
498;BME280;39559;48.630;9.162;2022-08-01T03:34:45;97591.81;;;13.22;100.00
498;BME280;39559;48.630;9.162;2022-08-01T03:37:21;97582.44;;;13.18;100.00
498;BME280;39559;48.630;9.162;2022-08-01T03:42:27;97584.69;;;13.09;100.00
498;BME280;39559;48.630;9.162;2022-08-01T03:44:58;97591.44;;;13.13;100.00
498;BME280;39559;48.630;9.162;2022-08-01T03:47:26;97580.84;;;13.16;100.00
498;BME280;39559;48.630;9.162;2022-08-01T03:51:21;97585.59;;;13.07;100.00
498;BME280;39559;48.630;9.162;2022-08-01T03:53:49;97584.09;;;13.03;100.00
498;BME280;39559;48.630;9.162;2022-08-01T03:56:18;97587.31;;;13.09;100.00
498;BME280;39559;48.630;9.162;2022-08-01T03:58:45;97577.03;;;13.05;100.00
498;BME280;39559;48.630;9.162;2022-08-01T04:01:10;97581.31;;;13.06;100.00
498;BME280;39559;48.630;9.162;2022-08-01T04:03:37;97581.41;;;13.05;100.00
498;BME280;39559;48.630;9.162;2022-08-01T04:06:06;97584.91;;;13.04;100.00
498;BME280;39559;48.630;9.162;2022-08-01T04:08:35;97573.97;;;12.97;100.00
498;BME280;39559;48.630;9.162;2022-08-01T04:11:02;97577.34;;;12.99;100.00
498;BME280;39559;48.630;9.162;2022-08-01T04:15:14;97575.19;;;13.07;100.00
498;BME280;39559;48.630;9.162;2022-08-01T04:17:40;97579.69;;;13.04;100.00
498;BME280;39559;48.630;9.162;2022-08-01T04:20:06;97589.97;;;13.07;100.00
498;BME280;39559;48.630;9.162;2022-08-01T04:22:31;97591.06;;;13.03;100.00
498;BME280;39559;48.630;9.162;2022-08-01T04:24:58;97588.75;;;12.97;100.00
498;BME280;39559;48.630;9.162;2022-08-01T04:27:30;97595.75;;;13.14;100.00
498;BME280;39559;48.630;9.162;2022-08-01T04:29:59;97594.03;;;13.13;100.00
498;BME280;39559;48.630;9.162;2022-08-01T04:32:27;97604.06;;;13.20;100.00
498;BME280;39559;48.630;9.162;2022-08-01T04:34:57;97610.16;;;13.21;100.00
498;BME280;39559;48.630;9.162;2022-08-01T04:39:11;97610.69;;;13.10;100.00
498;BME280;39559;48.630;9.162;2022-08-01T04:41:38;97604.47;;;13.13;100.00
498;BME280;39559;48.630;9.162;2022-08-01T04:44:04;97614.97;;;13.11;100.00
498;BME280;39559;48.630;9.162;2022-08-01T04:46:30;97614.28;;;13.07;100.00
498;BME280;39559;48.630;9.162;2022-08-01T04:48:58;97609.47;;;13.17;100.00
498;BME280;39559;48.630;9.162;2022-08-01T04:51:24;97621.41;;;13.21;100.00
498;BME280;39559;48.630;9.162;2022-08-01T04:53:50;97615.28;;;13.22;100.00
498;BME280;39559;48.630;9.162;2022-08-01T04:56:19;97613.34;;;13.26;100.00
498;BME280;39559;48.630;9.162;2022-08-01T04:58:46;97613.19;;;13.29;100.00
498;BME280;39559;48.630;9.162;2022-08-01T05:03:07;97607.53;;;13.38;100.00
498;BME280;39559;48.630;9.162;2022-08-01T05:05:34;97611.38;;;13.31;100.00
498;BME280;39559;48.630;9.162;2022-08-01T05:08:00;97609.44;;;13.35;100.00
498;BME280;39559;48.630;9.162;2022-08-01T05:10:26;97608.47;;;13.37;100.00
498;BME280;39559;48.630;9.162;2022-08-01T05:12:52;97606.91;;;13.33;100.00
498;BME280;39559;48.630;9.162;2022-08-01T05:15:18;97606.00;;;13.34;100.00
498;BME280;39559;48.630;9.162;2022-08-01T05:17:43;97611.22;;;13.34;100.00
498;BME280;39559;48.630;9.162;2022-08-01T05:20:10;97604.31;;;13.33;100.00
498;BME280;39559;48.630;9.162;2022-08-01T05:22:37;97604.63;;;13.44;100.00
498;BME280;39559;48.630;9.162;2022-08-01T05:27:04;97597.75;;;13.59;100.00
498;BME280;39559;48.630;9.162;2022-08-01T05:29:31;97591.00;;;13.71;100.00
498;BME280;39559;48.630;9.162;2022-08-01T05:31:57;97590.38;;;13.83;100.00
498;BME280;39559;48.630;9.162;2022-08-01T05:34:25;97600.81;;;13.99;100.00
498;BME280;39559;48.630;9.162;2022-08-01T05:36:51;97596.13;;;14.06;100.00
498;BME280;39559;48.630;9.162;2022-08-01T05:39:16;97590.97;;;14.05;100.00
498;BME280;39559;48.630;9.162;2022-08-01T05:41:42;97587.84;;;13.98;100.00
498;BME280;39559;48.630;9.162;2022-08-01T05:44:08;97595.75;;;14.12;100.00
498;BME280;39559;48.630;9.162;2022-08-01T05:46:34;97593.91;;;14.30;100.00
498;BME280;39559;48.630;9.162;2022-08-01T05:51:01;97587.13;;;14.42;100.00
498;BME280;39559;48.630;9.162;2022-08-01T05:53:27;97596.41;;;14.48;100.00
498;BME280;39559;48.630;9.162;2022-08-01T05:55:53;97602.75;;;14.59;100.00
498;BME280;39559;48.630;9.162;2022-08-01T05:58:18;97601.69;;;14.78;100.00
498;BME280;39559;48.630;9.162;2022-08-01T06:00:44;97601.97;;;14.88;100.00
498;BME280;39559;48.630;9.162;2022-08-01T06:03:12;97594.69;;;15.23;100.00
498;BME280;39559;48.630;9.162;2022-08-01T06:05:39;97591.78;;;15.57;100.00
498;BME280;39559;48.630;9.162;2022-08-01T06:08:05;97600.69;;;15.68;100.00
498;BME280;39559;48.630;9.162;2022-08-01T06:10:31;97597.16;;;15.84;100.00
498;BME280;39559;48.630;9.162;2022-08-01T06:14:58;97602.69;;;16.21;100.00
498;BME280;39559;48.630;9.162;2022-08-01T06:17:23;97598.94;;;16.25;100.00
498;BME280;39559;48.630;9.162;2022-08-01T06:19:49;97601.91;;;16.33;100.00
498;BME280;39559;48.630;9.162;2022-08-01T06:22:14;97596.97;;;16.56;100.00
498;BME280;39559;48.630;9.162;2022-08-01T06:24:40;97603.19;;;16.67;100.00
498;BME280;39559;48.630;9.162;2022-08-01T06:27:06;97596.41;;;16.78;100.00
498;BME280;39559;48.630;9.162;2022-08-01T06:29:31;97598.44;;;16.87;100.00
498;BME280;39559;48.630;9.162;2022-08-01T06:31:58;97602.47;;;17.05;100.00
498;BME280;39559;48.630;9.162;2022-08-01T06:34:23;97598.91;;;17.06;100.00
498;BME280;39559;48.630;9.162;2022-08-01T06:38:55;97595.66;;;17.29;100.00
498;BME280;39559;48.630;9.162;2022-08-01T06:41:20;97597.13;;;17.33;100.00
498;BME280;39559;48.630;9.162;2022-08-01T06:43:46;97596.59;;;17.40;100.00
498;BME280;39559;48.630;9.162;2022-08-01T06:46:11;97601.75;;;17.55;100.00
498;BME280;39559;48.630;9.162;2022-08-01T06:48:37;97602.78;;;17.65;100.00
498;BME280;39559;48.630;9.162;2022-08-01T06:51:05;97602.25;;;17.73;100.00
498;BME280;39559;48.630;9.162;2022-08-01T06:53:37;97601.59;;;17.82;100.00
498;BME280;39559;48.630;9.162;2022-08-01T06:56:04;97597.69;;;18.00;100.00
498;BME280;39559;48.630;9.162;2022-08-01T06:58:30;97594.94;;;18.15;100.00
498;BME280;39559;48.630;9.162;2022-08-01T07:02:53;97595.81;;;18.39;100.00
498;BME280;39559;48.630;9.162;2022-08-01T07:05:19;97593.00;;;18.54;100.00
498;BME280;39559;48.630;9.162;2022-08-01T07:07:45;97595.66;;;18.54;100.00
498;BME280;39559;48.630;9.162;2022-08-01T07:10:11;97590.06;;;18.70;100.00
498;BME280;39559;48.630;9.162;2022-08-01T07:12:37;97594.13;;;18.87;100.00
498;BME280;39559;48.630;9.162;2022-08-01T07:15:10;97601.69;;;19.03;100.00
498;BME280;39559;48.630;9.162;2022-08-01T07:17:40;97593.97;;;19.12;100.00
498;BME280;39559;48.630;9.162;2022-08-01T07:20:09;97593.97;;;19.24;100.00
498;BME280;39559;48.630;9.162;2022-08-01T07:22:35;97588.50;;;19.61;100.00
498;BME280;39559;48.630;9.162;2022-08-01T07:26:48;97589.03;;;19.88;100.00
498;BME280;39559;48.630;9.162;2022-08-01T07:29:14;97593.28;;;20.23;99.69
498;BME280;39559;48.630;9.162;2022-08-01T07:31:40;97595.66;;;20.38;96.42
498;BME280;39559;48.630;9.162;2022-08-01T07:34:05;97590.81;;;20.54;91.94
498;BME280;39559;48.630;9.162;2022-08-01T07:36:31;97590.97;;;20.74;91.47
498;BME280;39559;48.630;9.162;2022-08-01T07:38:56;97589.84;;;20.87;92.23
498;BME280;39559;48.630;9.162;2022-08-01T07:41:22;97585.38;;;20.99;93.11
498;BME280;39559;48.630;9.162;2022-08-01T07:43:48;97588.38;;;20.95;90.14
498;BME280;39559;48.630;9.162;2022-08-01T07:46:15;97580.81;;;20.90;88.63
498;BME280;39559;48.630;9.162;2022-08-01T07:50:45;97585.06;;;21.44;91.12
498;BME280;39559;48.630;9.162;2022-08-01T07:53:10;97587.53;;;21.36;84.35
498;BME280;39559;48.630;9.162;2022-08-01T07:55:36;97581.13;;;21.39;87.03
498;BME280;39559;48.630;9.162;2022-08-01T07:58:01;97574.00;;;21.51;83.34
498;BME280;39559;48.630;9.162;2022-08-01T08:00:27;97581.31;;;21.68;81.50
498;BME280;39559;48.630;9.162;2022-08-01T08:02:53;97576.91;;;21.78;80.33
498;BME280;39559;48.630;9.162;2022-08-01T08:05:19;97585.06;;;22.06;82.51
498;BME280;39559;48.630;9.162;2022-08-01T08:07:45;97579.00;;;22.25;78.52
498;BME280;39559;48.630;9.162;2022-08-01T08:10:10;97572.66;;;22.47;85.11
498;BME280;39559;48.630;9.162;2022-08-01T08:14:42;97570.13;;;22.46;81.58
498;BME280;39559;48.630;9.162;2022-08-01T08:17:07;97574.03;;;22.90;79.64
498;BME280;39559;48.630;9.162;2022-08-01T08:19:33;97572.09;;;22.92;77.36
498;BME280;39559;48.630;9.162;2022-08-01T08:22:02;97572.78;;;22.94;74.69
498;BME280;39559;48.630;9.162;2022-08-01T08:24:28;97571.25;;;22.82;76.79
498;BME280;39559;48.630;9.162;2022-08-01T08:26:55;97572.09;;;22.92;73.86
498;BME280;39559;48.630;9.162;2022-08-01T08:29:21;97563.16;;;22.93;73.60
498;BME280;39559;48.630;9.162;2022-08-01T08:31:48;97564.81;;;23.14;71.89
498;BME280;39559;48.630;9.162;2022-08-01T08:34:14;97567.00;;;23.28;69.53
498;BME280;39559;48.630;9.162;2022-08-01T08:38:38;97562.66;;;23.37;75.57
498;BME280;39559;48.630;9.162;2022-08-01T08:41:04;97556.31;;;23.20;72.34
498;BME280;39559;48.630;9.162;2022-08-01T08:43:30;97562.00;;;23.35;71.04
498;BME280;39559;48.630;9.162;2022-08-01T08:45:56;97562.16;;;23.61;69.89
498;BME280;39559;48.630;9.162;2022-08-01T08:48:21;97560.03;;;23.74;70.68
498;BME280;39559;48.630;9.162;2022-08-01T08:50:48;97557.06;;;23.50;67.73
498;BME280;39559;48.630;9.162;2022-08-01T08:53:15;97553.97;;;23.54;70.12
498;BME280;39559;48.630;9.162;2022-08-01T08:55:43;97563.16;;;23.60;71.95
498;BME280;39559;48.630;9.162;2022-08-01T08:58:13;97559.72;;;23.77;71.69
498;BME280;39559;48.630;9.162;2022-08-01T09:02:34;97556.47;;;23.93;68.93
498;BME280;39559;48.630;9.162;2022-08-01T09:05:01;97565.66;;;23.99;66.55
498;BME280;39559;48.630;9.162;2022-08-01T09:07:27;97562.44;;;24.41;63.33
498;BME280;39559;48.630;9.162;2022-08-01T09:09:52;97558.13;;;24.22;63.98
498;BME280;39559;48.630;9.162;2022-08-01T09:12:18;97550.56;;;24.45;67.28
498;BME280;39559;48.630;9.162;2022-08-01T09:14:46;97550.44;;;24.47;67.87
498;BME280;39559;48.630;9.162;2022-08-01T09:17:11;97553.22;;;24.45;68.68
498;BME280;39559;48.630;9.162;2022-08-01T09:19:52;97555.88;;;24.45;67.60
498;BME280;39559;48.630;9.162;2022-08-01T09:22:20;97555.25;;;24.51;62.11
498;BME280;39559;48.630;9.162;2022-08-01T09:26:32;97554.06;;;25.00;63.34
498;BME280;39559;48.630;9.162;2022-08-01T09:28:58;97553.28;;;25.07;63.10
498;BME280;39559;48.630;9.162;2022-08-01T09:31:27;97556.59;;;25.27;60.19
498;BME280;39559;48.630;9.162;2022-08-01T09:33:55;97556.81;;;25.16;61.60
498;BME280;39559;48.630;9.162;2022-08-01T09:36:25;97556.75;;;25.08;62.36
498;BME280;39559;48.630;9.162;2022-08-01T09:38:53;97560.16;;;25.18;64.12
498;BME280;39559;48.630;9.162;2022-08-01T09:41:29;97556.75;;;25.26;63.13
498;BME280;39559;48.630;9.162;2022-08-01T09:43:55;97558.25;;;25.28;60.38
498;BME280;39559;48.630;9.162;2022-08-01T09:46:24;97557.50;;;25.44;63.55
498;BME280;39559;48.630;9.162;2022-08-01T09:50:39;97552.19;;;25.44;59.67
498;BME280;39559;48.630;9.162;2022-08-01T09:53:05;97541.69;;;25.17;57.23
498;BME280;39559;48.630;9.162;2022-08-01T09:55:30;97548.13;;;24.88;60.92
498;BME280;39559;48.630;9.162;2022-08-01T09:57:56;97545.72;;;24.77;60.11
498;BME280;39559;48.630;9.162;2022-08-01T10:00:26;97548.00;;;24.71;62.78
498;BME280;39559;48.630;9.162;2022-08-01T10:02:52;97550.38;;;24.57;60.40
498;BME280;39559;48.630;9.162;2022-08-01T10:05:33;97547.84;;;24.73;62.99
498;BME280;39559;48.630;9.162;2022-08-01T10:08:01;97546.63;;;24.85;62.60
498;BME280;39559;48.630;9.162;2022-08-01T10:10:28;97537.31;;;25.25;61.62
498;BME280;39559;48.630;9.162;2022-08-01T10:14:24;97531.44;;;25.82;58.25
498;BME280;39559;48.630;9.162;2022-08-01T10:16:51;97529.53;;;26.01;60.28
498;BME280;39559;48.630;9.162;2022-08-01T10:19:21;97525.38;;;26.07;57.32
498;BME280;39559;48.630;9.162;2022-08-01T10:21:48;97524.94;;;25.77;54.10
498;BME280;39559;48.630;9.162;2022-08-01T10:24:16;97524.41;;;25.73;54.46
498;BME280;39559;48.630;9.162;2022-08-01T10:26:43;97514.44;;;25.67;57.12
498;BME280;39559;48.630;9.162;2022-08-01T10:29:09;97519.81;;;25.83;59.83
498;BME280;39559;48.630;9.162;2022-08-01T10:31:37;97527.22;;;25.72;55.65
498;BME280;39559;48.630;9.162;2022-08-01T10:34:03;97506.09;;;25.62;59.62
498;BME280;39559;48.630;9.162;2022-08-01T10:38:17;97516.44;;;25.39;59.75
498;BME280;39559;48.630;9.162;2022-08-01T10:40:43;97514.78;;;25.38;58.60
498;BME280;39559;48.630;9.162;2022-08-01T10:43:11;97513.72;;;25.57;59.94
498;BME280;39559;48.630;9.162;2022-08-01T10:45:37;97511.72;;;25.59;58.81
498;BME280;39559;48.630;9.162;2022-08-01T10:48:09;97503.44;;;25.70;58.28
498;BME280;39559;48.630;9.162;2022-08-01T10:50:40;97515.63;;;25.81;58.54
498;BME280;39559;48.630;9.162;2022-08-01T10:53:10;97505.59;;;26.09;57.07
498;BME280;39559;48.630;9.162;2022-08-01T10:55:51;97492.84;;;26.46;53.54
498;BME280;39559;48.630;9.162;2022-08-01T10:58:24;97511.69;;;26.60;57.83
498;BME280;39559;48.630;9.162;2022-08-01T11:02:28;97509.22;;;25.57;54.46
498;BME280;39559;48.630;9.162;2022-08-01T11:04:58;97513.56;;;25.32;55.83
498;BME280;39559;48.630;9.162;2022-08-01T11:10:21;97516.78;;;24.91;58.84
498;BME280;39559;48.630;9.162;2022-08-01T11:12:48;97512.88;;;24.78;59.15
498;BME280;39559;48.630;9.162;2022-08-01T11:17:40;97511.56;;;24.28;63.75
498;BME280;39559;48.630;9.162;2022-08-01T11:20:33;97504.28;;;24.30;65.26
498;BME280;39559;48.630;9.162;2022-08-01T11:26:08;97500.50;;;24.32;69.39
498;BME280;39559;48.630;9.162;2022-08-01T11:28:34;97497.63;;;24.26;67.11
498;BME280;39559;48.630;9.162;2022-08-01T11:38:46;97504.81;;;24.33;64.74
498;BME280;39559;48.630;9.162;2022-08-01T11:41:29;97499.97;;;24.29;67.84
498;BME280;39559;48.630;9.162;2022-08-01T11:47:03;97502.75;;;25.25;63.51
498;BME280;39559;48.630;9.162;2022-08-01T11:50:02;97491.00;;;25.71;62.49
498;BME280;39559;48.630;9.162;2022-08-01T11:52:29;97495.16;;;25.73;60.33
498;BME280;39559;48.630;9.162;2022-08-01T11:55:07;97485.22;;;25.83;59.68
498;BME280;39559;48.630;9.162;2022-08-01T11:57:33;97484.31;;;25.58;57.60
498;BME280;39559;48.630;9.162;2022-08-01T12:00:12;97486.03;;;25.15;60.48
498;BME280;39559;48.630;9.162;2022-08-01T12:02:39;97480.00;;;25.05;64.82
498;BME280;39559;48.630;9.162;2022-08-01T12:05:07;97488.19;;;25.12;59.65
498;BME280;39559;48.630;9.162;2022-08-01T12:07:35;97484.34;;;25.06;64.26
498;BME280;39559;48.630;9.162;2022-08-01T12:10:12;97477.72;;;25.10;63.65
498;BME280;39559;48.630;9.162;2022-08-01T12:13:57;97482.53;;;24.88;64.18
498;BME280;39559;48.630;9.162;2022-08-01T12:16:23;97476.66;;;24.77;65.24
498;BME280;39559;48.630;9.162;2022-08-01T12:18:48;97484.38;;;24.62;63.22
498;BME280;39559;48.630;9.162;2022-08-01T12:21:14;97487.97;;;24.43;69.60
498;BME280;39559;48.630;9.162;2022-08-01T12:23:39;97476.25;;;24.45;65.46
498;BME280;39559;48.630;9.162;2022-08-01T12:26:05;97476.78;;;24.31;74.19
498;BME280;39559;48.630;9.162;2022-08-01T12:28:39;97471.06;;;24.44;74.07
498;BME280;39559;48.630;9.162;2022-08-01T12:31:04;97471.28;;;25.21;71.84
498;BME280;39559;48.630;9.162;2022-08-01T12:33:30;97470.41;;;25.81;64.74
498;BME280;39559;48.630;9.162;2022-08-01T12:37:53;97460.53;;;26.57;57.30
498;BME280;39559;48.630;9.162;2022-08-01T12:40:40;97452.84;;;27.03;59.49
498;BME280;39559;48.630;9.162;2022-08-01T12:43:07;97447.59;;;27.43;57.59
498;BME280;39559;48.630;9.162;2022-08-01T12:45:41;97445.81;;;27.27;55.64
498;BME280;39559;48.630;9.162;2022-08-01T12:48:09;97435.69;;;27.62;53.63
498;BME280;39559;48.630;9.162;2022-08-01T12:50:41;97436.56;;;27.85;52.37
498;BME280;39559;48.630;9.162;2022-08-01T12:53:08;97431.41;;;28.07;50.61
498;BME280;39559;48.630;9.162;2022-08-01T12:55:46;97430.84;;;27.97;49.29
498;BME280;39559;48.630;9.162;2022-08-01T12:58:14;97431.88;;;27.87;51.09
498;BME280;39559;48.630;9.162;2022-08-01T13:01:45;97434.03;;;27.92;50.08
498;BME280;39559;48.630;9.162;2022-08-01T13:04:11;97429.41;;;27.46;52.72
498;BME280;39559;48.630;9.162;2022-08-01T13:06:36;97433.81;;;27.31;53.09
498;BME280;39559;48.630;9.162;2022-08-01T13:09:06;97447.84;;;27.08;52.81
498;BME280;39559;48.630;9.162;2022-08-01T13:11:32;97446.25;;;26.41;54.59
498;BME280;39559;48.630;9.162;2022-08-01T13:13:57;97455.53;;;25.96;56.62
498;BME280;39559;48.630;9.162;2022-08-01T13:16:25;97450.50;;;25.93;54.24
498;BME280;39559;48.630;9.162;2022-08-01T13:18:52;97451.41;;;25.67;56.68
498;BME280;39559;48.630;9.162;2022-08-01T13:21:19;97451.88;;;25.63;53.97
498;BME280;39559;48.630;9.162;2022-08-01T13:25:53;97442.06;;;25.98;63.05
498;BME280;39559;48.630;9.162;2022-08-01T13:28:24;97439.22;;;26.90;54.31
498;BME280;39559;48.630;9.162;2022-08-01T13:31:01;97424.97;;;27.22;55.64
498;BME280;39559;48.630;9.162;2022-08-01T13:33:46;97419.91;;;28.06;48.93
498;BME280;39559;48.630;9.162;2022-08-01T13:36:13;97412.09;;;27.73;51.30
498;BME280;39559;48.630;9.162;2022-08-01T13:38:40;97411.72;;;28.31;50.52
498;BME280;39559;48.630;9.162;2022-08-01T13:41:25;97411.47;;;28.41;48.52
498;BME280;39559;48.630;9.162;2022-08-01T13:43:50;97413.44;;;28.24;48.68
498;BME280;39559;48.630;9.162;2022-08-01T13:46:16;97422.94;;;28.03;49.90
498;BME280;39559;48.630;9.162;2022-08-01T13:49:33;97417.81;;;27.31;50.51
498;BME280;39559;48.630;9.162;2022-08-01T13:51:59;97423.91;;;27.39;51.63
498;BME280;39559;48.630;9.162;2022-08-01T13:54:25;97416.56;;;26.94;52.33
498;BME280;39559;48.630;9.162;2022-08-01T13:56:51;97414.63;;;27.35;51.40
498;BME280;39559;48.630;9.162;2022-08-01T13:59:17;97410.25;;;27.74;50.98
498;BME280;39559;48.630;9.162;2022-08-01T14:01:43;97411.94;;;28.21;50.49
498;BME280;39559;48.630;9.162;2022-08-01T14:04:09;97411.97;;;27.98;49.59
498;BME280;39559;48.630;9.162;2022-08-01T14:06:35;97411.66;;;27.14;50.96
498;BME280;39559;48.630;9.162;2022-08-01T14:09:02;97410.72;;;26.98;52.00
498;BME280;39559;48.630;9.162;2022-08-01T14:13:25;97408.44;;;26.46;56.67
498;BME280;39559;48.630;9.162;2022-08-01T14:15:51;97398.16;;;26.35;53.01
498;BME280;39559;48.630;9.162;2022-08-01T14:18:17;97405.13;;;26.03;57.38
498;BME280;39559;48.630;9.162;2022-08-01T14:20:43;97403.78;;;25.99;56.02
498;BME280;39559;48.630;9.162;2022-08-01T14:23:09;97402.72;;;25.67;58.32
498;BME280;39559;48.630;9.162;2022-08-01T14:25:39;97407.84;;;25.68;60.83
498;BME280;39559;48.630;9.162;2022-08-01T14:28:05;97409.88;;;25.75;63.30
498;BME280;39559;48.630;9.162;2022-08-01T14:30:32;97407.53;;;25.72;61.97
498;BME280;39559;48.630;9.162;2022-08-01T14:32:58;97405.25;;;25.85;62.86
498;BME280;39559;48.630;9.162;2022-08-01T14:37:19;97401.28;;;25.97;57.50
498;BME280;39559;48.630;9.162;2022-08-01T14:39:45;97408.97;;;26.17;57.41
498;BME280;39559;48.630;9.162;2022-08-01T14:42:10;97403.94;;;25.97;62.12
498;BME280;39559;48.630;9.162;2022-08-01T14:44:36;97409.63;;;26.02;61.62
498;BME280;39559;48.630;9.162;2022-08-01T14:47:01;97411.91;;;25.89;60.23
498;BME280;39559;48.630;9.162;2022-08-01T14:49:27;97400.41;;;25.89;59.51
498;BME280;39559;48.630;9.162;2022-08-01T14:51:53;97409.91;;;25.91;60.01
498;BME280;39559;48.630;9.162;2022-08-01T14:54:18;97404.59;;;25.91;65.72